createdAt,value
2017-08-25T00:00:09.130Z,0
2017-08-25T00:01:09.881Z,0
2017-08-25T00:02:10.604Z,0
2017-08-25T00:03:11.326Z,0
2017-08-25T00:04:12.053Z,0
2017-08-25T00:05:12.776Z,0
2017-08-25T00:06:13.501Z,0
2017-08-25T00:07:14.221Z,0
2017-08-25T00:08:14.942Z,0
2017-08-25T00:09:15.688Z,0
2017-08-25T00:10:16.436Z,0
2017-08-25T00:11:17.157Z,0
2017-08-25T00:12:17.905Z,0
2017-08-25T00:13:18.631Z,0
2017-08-25T00:14:19.380Z,0
2017-08-25T00:15:20.126Z,0
2017-08-25T00:16:20.849Z,0
2017-08-25T00:17:21.570Z,0
2017-08-25T00:18:22.292Z,0
2017-08-25T00:19:23.016Z,0
2017-08-25T00:20:23.741Z,0
2017-08-25T00:21:24.464Z,0
2017-08-25T00:22:25.190Z,0
2017-08-25T00:23:25.911Z,0
2017-08-25T00:24:26.633Z,0
2017-08-25T00:25:27.358Z,0
2017-08-25T00:26:28.077Z,0
2017-08-25T00:27:28.802Z,0
2017-08-25T00:28:29.525Z,0
2017-08-25T00:29:30.272Z,0
2017-08-25T00:30:30.996Z,0
2017-08-25T00:31:31.717Z,0
2017-08-25T00:32:32.437Z,0
2017-08-25T00:33:33.158Z,0
2017-08-25T00:34:33.882Z,0
2017-08-25T00:35:34.626Z,0
2017-08-25T00:36:35.351Z,0
2017-08-25T00:37:36.073Z,0
2017-08-25T00:38:36.797Z,0
2017-08-25T00:39:37.520Z,0
2017-08-25T00:40:38.268Z,0
2017-08-25T00:41:38.987Z,0
2017-08-25T00:42:39.730Z,0
2017-08-25T00:43:40.475Z,0
2017-08-25T00:44:41.200Z,0
2017-08-25T00:45:41.921Z,0
2017-08-25T00:46:42.647Z,0
2017-08-25T00:47:43.398Z,0
2017-08-25T00:48:44.117Z,0
2017-08-25T00:49:44.840Z,0
2017-08-25T00:50:45.565Z,0
2017-08-25T00:51:46.306Z,0
2017-08-25T00:52:47.052Z,0
2017-08-25T00:53:47.772Z,0
2017-08-25T00:54:48.496Z,0
2017-08-25T00:55:49.218Z,0
2017-08-25T00:56:49.941Z,0
2017-08-25T00:57:50.682Z,0
2017-08-25T00:58:51.406Z,0
2017-08-25T00:59:52.148Z,0
2017-08-25T01:00:52.890Z,0
2017-08-25T01:01:53.613Z,0
2017-08-25T01:02:54.332Z,0
2017-08-25T01:03:55.055Z,0
2017-08-25T01:04:55.795Z,0
2017-08-25T01:05:56.540Z,0
2017-08-25T01:06:57.261Z,0
2017-08-25T01:07:57.986Z,0
2017-08-25T01:08:58.708Z,0
2017-08-25T01:09:59.429Z,0
2017-08-25T01:11:00.173Z,0
2017-08-25T01:12:00.915Z,0
2017-08-25T01:13:01.638Z,0
2017-08-25T01:14:02.357Z,0
2017-08-25T01:15:03.078Z,0
2017-08-25T01:16:03.801Z,0
2017-08-25T01:17:04.523Z,0
2017-08-25T01:18:05.242Z,0
2017-08-25T01:19:05.983Z,0
2017-08-25T01:20:06.704Z,0
2017-08-25T01:21:07.446Z,0
2017-08-25T01:22:08.169Z,0
2017-08-25T01:23:08.894Z,0
2017-08-25T01:24:09.633Z,0
2017-08-25T01:25:10.358Z,0
2017-08-25T01:26:11.082Z,0
2017-08-25T01:27:11.799Z,0
2017-08-25T01:28:12.524Z,0
2017-08-25T01:29:13.242Z,0
2017-08-25T01:30:13.965Z,0
2017-08-25T01:31:14.688Z,0
2017-08-25T01:32:15.430Z,0
2017-08-25T01:33:16.170Z,0
2017-08-25T01:34:16.896Z,0
2017-08-25T01:35:17.620Z,0
2017-08-25T01:36:18.362Z,0
2017-08-25T01:37:19.086Z,0
2017-08-25T01:38:19.811Z,0
2017-08-25T01:39:20.530Z,0
2017-08-25T01:40:21.253Z,0
2017-08-25T01:41:21.977Z,0
2017-08-25T01:42:22.699Z,0
2017-08-25T01:43:23.420Z,0
2017-08-25T01:44:24.144Z,0
2017-08-25T01:45:24.869Z,0
2017-08-25T01:46:25.588Z,0
2017-08-25T01:47:26.333Z,0
2017-08-25T01:48:27.056Z,0
2017-08-25T01:49:27.774Z,0
2017-08-25T01:50:28.500Z,0
2017-08-25T01:51:29.239Z,0
2017-08-25T01:52:29.959Z,0
2017-08-25T01:53:30.701Z,0
2017-08-25T01:54:31.424Z,0
2017-08-25T01:55:32.146Z,0
2017-08-25T01:56:32.888Z,0
2017-08-25T01:57:33.630Z,0
2017-08-25T01:58:34.372Z,0
2017-08-25T01:59:35.093Z,0
2017-08-25T02:00:35.815Z,0
2017-08-25T02:01:36.538Z,0
2017-08-25T02:02:37.266Z,0
2017-08-25T02:03:37.983Z,0
2017-08-25T02:04:38.709Z,0
2017-08-25T02:05:39.433Z,0
2017-08-25T02:06:40.153Z,0
2017-08-25T02:07:40.874Z,0
2017-08-25T02:08:41.598Z,0
2017-08-25T02:09:42.323Z,0
2017-08-25T02:10:43.044Z,0
2017-08-25T02:11:43.787Z,0
2017-08-25T02:12:44.511Z,0
2017-08-25T02:13:45.251Z,0
2017-08-25T02:14:45.970Z,0
2017-08-25T02:15:46.694Z,0
2017-08-25T02:16:47.419Z,0
2017-08-25T02:17:48.140Z,0
2017-08-25T02:18:48.867Z,0
2017-08-25T02:19:49.612Z,0
2017-08-25T02:20:50.355Z,0
2017-08-25T02:21:51.081Z,0
2017-08-25T02:22:51.819Z,0
2017-08-25T02:23:52.543Z,0
2017-08-25T02:24:53.264Z,0
2017-08-25T02:25:53.985Z,0
2017-08-25T02:26:54.707Z,0
2017-08-25T02:27:55.432Z,0
2017-08-25T02:28:56.178Z,0
2017-08-25T02:29:56.900Z,0
2017-08-25T02:30:57.622Z,0
2017-08-25T02:31:58.344Z,0
2017-08-25T02:32:59.066Z,0
2017-08-25T02:33:59.792Z,0
2017-08-25T02:35:00.512Z,0
2017-08-25T02:36:01.257Z,0
2017-08-25T02:37:01.998Z,0
2017-08-25T02:38:02.720Z,0
2017-08-25T02:39:03.444Z,0
2017-08-25T02:40:04.167Z,0
2017-08-25T02:41:04.891Z,0
2017-08-25T02:42:05.612Z,0
2017-08-25T02:43:06.357Z,0
2017-08-25T02:44:07.078Z,0
2017-08-25T02:45:07.801Z,0
2017-08-25T02:46:08.537Z,0
2017-08-25T02:47:09.263Z,0
2017-08-25T02:48:09.984Z,0
2017-08-25T02:49:10.707Z,0
2017-08-25T02:50:11.453Z,0
2017-08-25T02:51:12.191Z,0
2017-08-25T02:52:12.914Z,0
2017-08-25T02:53:13.637Z,0
2017-08-25T02:54:14.356Z,0
2017-08-25T02:55:15.079Z,0
2017-08-25T02:56:15.821Z,0
2017-08-25T02:57:16.549Z,0
2017-08-25T02:58:17.292Z,0
2017-08-25T02:59:18.012Z,0
2017-08-25T03:00:18.738Z,0
2017-08-25T03:01:19.481Z,0
2017-08-25T03:02:20.205Z,0
2017-08-25T03:03:20.923Z,0
2017-08-25T03:04:21.644Z,0
2017-08-25T03:05:22.368Z,0
2017-08-25T03:06:23.092Z,0
2017-08-25T03:07:23.811Z,0
2017-08-25T03:08:24.533Z,0
2017-08-25T03:09:25.259Z,0
2017-08-25T03:10:25.981Z,0
2017-08-25T03:11:26.705Z,0
2017-08-25T03:12:27.429Z,0
2017-08-25T03:13:28.148Z,0
2017-08-25T03:14:28.874Z,0
2017-08-25T03:15:29.599Z,0
2017-08-25T03:16:30.319Z,0
2017-08-25T03:17:31.042Z,0
2017-08-25T03:18:31.764Z,0
2017-08-25T03:19:32.485Z,0
2017-08-25T03:20:33.225Z,0
2017-08-25T03:21:33.950Z,0
2017-08-25T03:22:34.693Z,0
2017-08-25T03:23:35.434Z,0
2017-08-25T03:24:36.160Z,0
2017-08-25T03:25:36.879Z,0
2017-08-25T03:28:15.452Z,0
2017-08-25T03:29:16.170Z,0
2017-08-25T03:30:16.893Z,0
2017-08-25T03:31:17.619Z,0
2017-08-25T03:32:18.341Z,0
2017-08-25T03:33:19.063Z,0
2017-08-25T03:34:19.783Z,0
2017-08-25T03:35:20.507Z,0
2017-08-25T03:36:21.252Z,0
2017-08-25T03:37:21.976Z,0
2017-08-25T03:38:22.696Z,0
2017-08-25T03:39:23.417Z,0
2017-08-25T03:40:24.137Z,0
2017-08-25T03:41:24.858Z,0
2017-08-25T03:42:25.581Z,0
2017-08-25T03:43:26.323Z,0
2017-08-25T03:44:27.048Z,0
2017-08-25T03:45:27.770Z,0
2017-08-25T03:46:28.488Z,0
2017-08-25T03:47:29.210Z,0
2017-08-25T03:48:29.931Z,0
2017-08-25T03:49:30.656Z,0
2017-08-25T03:50:31.380Z,0
2017-08-25T03:51:32.102Z,0
2017-08-25T03:52:32.822Z,0
2017-08-25T03:53:33.547Z,0
2017-08-25T03:54:34.269Z,0
2017-08-25T03:55:34.990Z,0
2017-08-25T03:56:35.710Z,0
2017-08-25T03:57:36.455Z,0
2017-08-25T03:58:37.199Z,0
2017-08-25T03:59:37.920Z,0
2017-08-25T04:00:38.641Z,0
2017-08-25T04:01:39.366Z,4
2017-08-25T04:02:40.107Z,4
2017-08-25T04:03:40.833Z,4
2017-08-25T04:04:41.557Z,4
2017-08-25T04:05:42.291Z,4
2017-08-25T04:06:43.021Z,8
2017-08-25T04:07:43.745Z,4
2017-08-25T04:08:44.471Z,8
2017-08-25T04:09:45.210Z,8
2017-08-25T04:10:45.931Z,8
2017-08-25T04:11:46.654Z,12
2017-08-25T04:12:47.379Z,12
2017-08-25T04:13:48.131Z,16
2017-08-25T04:14:48.847Z,20
2017-08-25T04:15:49.568Z,20
2017-08-25T04:16:50.291Z,24
2017-08-25T04:17:51.015Z,32
2017-08-25T04:18:51.737Z,36
2017-08-25T04:19:52.463Z,40
2017-08-25T04:20:53.184Z,44
2017-08-25T04:21:53.909Z,52
2017-08-25T04:22:54.633Z,56
2017-08-25T04:23:55.357Z,64
2017-08-25T04:24:56.080Z,68
2017-08-25T04:25:56.803Z,72
2017-08-25T04:26:57.547Z,80
2017-08-25T04:27:58.271Z,92
2017-08-25T04:28:58.994Z,96
2017-08-25T04:29:59.716Z,104
2017-08-25T04:31:00.443Z,112
2017-08-25T04:32:01.167Z,120
2017-08-25T04:33:01.892Z,136
2017-08-25T04:34:02.617Z,152
2017-08-25T04:35:03.339Z,168
2017-08-25T04:36:04.067Z,188
2017-08-25T04:37:04.812Z,212
2017-08-25T04:38:05.558Z,236
2017-08-25T04:39:06.286Z,264
2017-08-25T04:40:07.010Z,292
2017-08-25T04:41:07.734Z,320
2017-08-25T04:42:08.459Z,352
2017-08-25T04:43:09.186Z,384
2017-08-25T04:44:09.909Z,416
2017-08-25T04:45:10.655Z,456
2017-08-25T04:46:11.380Z,492
2017-08-25T04:47:12.111Z,528
2017-08-25T04:48:12.831Z,564
2017-08-25T04:49:13.554Z,600
2017-08-25T04:50:14.282Z,652
2017-08-25T04:51:15.007Z,708
2017-08-25T04:52:15.735Z,764
2017-08-25T04:53:16.457Z,828
2017-08-25T04:54:17.187Z,892
2017-08-25T04:55:19.151Z,964
2017-08-25T04:56:19.878Z,1028
2017-08-25T04:57:20.604Z,1068
2017-08-25T05:03:09.104Z,1280
2017-08-25T05:05:11.557Z,1336
2017-08-25T08:49:34.031Z,19520
2017-08-25T08:50:34.767Z,19424
2017-08-25T08:51:35.528Z,19712
2017-08-25T08:52:36.274Z,18624
2017-08-25T08:53:37.014Z,21184
2017-08-25T08:54:37.755Z,20672
2017-08-25T08:55:38.493Z,19872
2017-08-25T08:56:39.237Z,19840
2017-08-25T08:57:39.978Z,20416
2017-08-25T08:58:40.719Z,20576
2017-08-25T08:59:41.463Z,21312
2017-08-25T09:00:42.210Z,21824
2017-08-25T09:01:42.945Z,22272
2017-08-25T09:02:43.702Z,23168
2017-08-25T09:03:44.468Z,24160
2017-08-25T09:04:45.210Z,43744
2017-08-25T09:05:45.966Z,52064
2017-08-25T09:06:46.700Z,53280
2017-08-25T09:07:47.439Z,48768
2017-08-25T09:08:48.185Z,53248
2017-08-25T09:09:48.950Z,54080
2017-08-25T09:10:49.694Z,53856
2017-08-25T09:11:50.444Z,58144
2017-08-25T09:12:51.191Z,59040
2017-08-25T09:13:51.956Z,59648
2017-08-25T09:14:52.709Z,62176
2017-08-25T09:15:53.456Z,61056
2017-08-25T09:16:54.200Z,62624
2017-08-25T09:17:54.947Z,60928
2017-08-25T09:18:55.722Z,57856
2017-08-25T09:19:56.470Z,52256
2017-08-25T09:20:57.221Z,56064
2017-08-25T09:21:57.977Z,56288
2017-08-25T09:22:58.745Z,61696
2017-08-25T09:23:59.472Z,64352
2017-08-25T09:25:00.245Z,67168
2017-08-25T09:26:01.000Z,40928
2017-08-25T09:27:01.779Z,71488
2017-08-25T09:28:02.550Z,68096
2017-08-25T09:29:03.302Z,70016
2017-08-25T09:30:04.052Z,68608
2017-08-25T09:31:04.808Z,69760
2017-08-25T09:32:05.563Z,71488
2017-08-25T09:33:06.311Z,69920
2017-08-25T09:34:07.066Z,66816
2017-08-25T09:35:07.819Z,70848
2017-08-25T09:36:08.573Z,70144
2017-08-25T09:37:09.321Z,67488
2017-08-25T09:38:10.089Z,61856
2017-08-25T09:39:10.841Z,52160
2017-08-25T09:40:11.611Z,64992
2017-08-25T09:41:12.360Z,69216
2017-08-25T09:42:13.131Z,72128
2017-08-25T09:43:13.883Z,64224
2017-08-25T09:44:14.633Z,67584
2017-08-25T09:45:15.383Z,66560
2017-08-25T09:46:16.131Z,63200
2017-08-25T09:47:16.880Z,61248
2017-08-25T09:48:17.629Z,55968
2017-08-25T09:49:18.375Z,68192
2017-08-25T09:50:19.126Z,66592
2017-08-25T09:51:19.873Z,69408
2017-08-25T09:52:20.623Z,69984
2017-08-25T09:53:21.376Z,66656
2017-08-25T09:54:22.128Z,59104
2017-08-25T09:55:22.882Z,60544
2017-08-25T09:56:23.630Z,61216
2017-08-25T09:57:24.381Z,59360
2017-08-25T09:58:25.134Z,65504
2017-08-25T09:59:25.883Z,64352
2017-08-25T10:00:26.636Z,68768
2017-08-25T10:01:27.385Z,70272
2017-08-25T10:02:28.138Z,64384
2017-08-25T10:03:28.887Z,66240
2017-08-25T10:04:29.642Z,67072
2017-08-25T10:05:30.385Z,64032
2017-08-25T10:06:31.135Z,66176
2017-08-25T10:07:31.883Z,64928
2017-08-25T10:08:32.634Z,59840
2017-08-25T10:09:33.382Z,63584
2017-08-25T10:10:34.129Z,54272
2017-08-25T10:11:34.883Z,56992
2017-08-25T10:12:35.651Z,23424
2017-08-25T10:13:36.406Z,62848
2017-08-25T10:14:37.150Z,55552
2017-08-25T10:15:37.926Z,59904
2017-08-25T10:16:38.677Z,65440
2017-08-25T10:17:39.427Z,68992
2017-08-25T10:18:40.178Z,68800
2017-08-25T10:19:40.952Z,62144
2017-08-25T10:20:41.707Z,62176
2017-08-25T10:21:42.481Z,63776
2017-08-25T10:22:43.226Z,58624
2017-08-25T10:23:43.981Z,68224
2017-08-25T10:24:44.730Z,59072
2017-08-25T10:25:45.479Z,58112
2017-08-25T10:26:46.226Z,63360
2017-08-25T10:27:47.001Z,67648
2017-08-25T10:28:47.749Z,68224
2017-08-25T10:29:48.501Z,66976
2017-08-25T10:30:49.253Z,65472
2017-08-25T10:31:50.007Z,68032
2017-08-25T10:32:50.756Z,68736
2017-08-25T10:33:51.528Z,72320
2017-08-25T10:34:52.281Z,73280
2017-08-25T10:35:53.050Z,70592
2017-08-25T10:36:53.795Z,68224
2017-08-25T10:37:54.543Z,70816
2017-08-25T10:38:55.293Z,71168
2017-08-25T10:39:56.041Z,71072
2017-08-25T10:40:56.793Z,71296
2017-08-25T10:41:57.540Z,75744
2017-08-25T10:42:58.293Z,78720
2017-08-25T10:43:59.063Z,79392
2017-08-25T10:44:59.835Z,76800
2017-08-25T10:46:00.838Z,78880
2017-08-25T10:47:01.589Z,71712
2017-08-25T10:48:02.365Z,70784
2017-08-25T10:49:03.116Z,73440
2017-08-25T10:50:03.865Z,73440
2017-08-25T10:51:04.615Z,74784
2017-08-25T10:52:05.369Z,73472
2017-08-25T10:53:06.113Z,74720
2017-08-25T10:54:06.868Z,75040
2017-08-25T10:55:07.617Z,69280
2017-08-25T10:56:08.361Z,75552
2017-08-25T10:57:09.114Z,75904
2017-08-25T10:58:09.860Z,70848
2017-08-25T10:59:10.607Z,72736
2017-08-25T11:00:11.355Z,67328
2017-08-25T11:01:12.100Z,67552
2017-08-25T11:02:12.855Z,68224
2017-08-25T11:03:13.622Z,76896
2017-08-25T11:04:14.368Z,78272
2017-08-25T11:05:15.120Z,77056
2017-08-25T11:06:15.871Z,72800
2017-08-25T11:07:16.619Z,75072
2017-08-25T11:08:17.366Z,65568
2017-08-25T11:09:18.116Z,67648
2017-08-25T11:10:18.869Z,71808
2017-08-25T11:11:19.617Z,70624
2017-08-25T11:12:20.387Z,71616
2017-08-25T11:13:21.142Z,69504
2017-08-25T11:14:21.886Z,69696
2017-08-25T11:15:22.657Z,76512
2017-08-25T11:16:23.402Z,71232
2017-08-25T11:17:24.152Z,76512
2017-08-25T11:18:24.907Z,76224
2017-08-25T11:19:25.680Z,78176
2017-08-25T11:20:26.432Z,73792
2017-08-25T11:21:27.200Z,74240
2017-08-25T11:22:27.946Z,74432
2017-08-25T11:23:28.715Z,70240
2017-08-25T11:24:29.463Z,71744
2017-08-25T11:25:30.215Z,71136
2017-08-25T11:26:30.962Z,69536
2017-08-25T11:27:31.712Z,68256
2017-08-25T11:28:32.481Z,69088
2017-08-25T11:29:33.229Z,66400
2017-08-25T11:30:33.978Z,68448
2017-08-25T11:31:34.726Z,70784
2017-08-25T11:32:35.496Z,71296
2017-08-25T11:33:36.243Z,68896
2017-08-25T11:34:36.992Z,67904
2017-08-25T11:35:37.735Z,69024
2017-08-25T11:36:38.508Z,67392
2017-08-25T11:37:39.254Z,67456
2017-08-25T11:38:39.998Z,65632
2017-08-25T11:39:40.751Z,63872
2017-08-25T11:40:41.503Z,65184
2017-08-25T11:41:42.258Z,67264
2017-08-25T11:42:43.030Z,64864
2017-08-25T11:43:43.778Z,58336
2017-08-25T11:44:44.546Z,67712
2017-08-25T11:45:45.317Z,63104
2017-08-25T11:46:46.062Z,66912
2017-08-25T11:47:46.828Z,68448
2017-08-25T11:48:47.580Z,67744
2017-08-25T11:49:48.334Z,68032
2017-08-25T11:50:49.082Z,68992
2017-08-25T11:51:49.838Z,65952
2017-08-25T11:52:50.582Z,64800
2017-08-25T11:53:51.347Z,60448
2017-08-25T11:54:52.096Z,61248
2017-08-25T11:55:52.844Z,54432
2017-08-25T11:56:53.591Z,53984
2017-08-25T11:57:54.361Z,57280
2017-08-25T11:58:55.108Z,55456
2017-08-25T11:59:55.852Z,57920
2017-08-25T12:00:56.600Z,56224
2017-08-25T12:01:57.354Z,54016
2017-08-25T12:02:58.124Z,51968
2017-08-25T12:03:58.867Z,56608
2017-08-25T12:04:59.616Z,63872
2017-08-25T12:06:00.375Z,62560
2017-08-25T12:07:01.117Z,64512
2017-08-25T12:08:01.863Z,63232
2017-08-25T12:09:02.633Z,56000
2017-08-25T12:10:03.382Z,58848
2017-08-25T12:11:04.126Z,56608
2017-08-25T12:12:04.872Z,56128
2017-08-25T12:13:05.615Z,54816
2017-08-25T12:14:06.364Z,54240
2017-08-25T12:15:07.112Z,53504
2017-08-25T12:16:07.881Z,49312
2017-08-25T12:17:08.624Z,51360
2017-08-25T12:18:09.397Z,52352
2017-08-25T12:19:10.147Z,49728
2017-08-25T12:20:10.896Z,46976
2017-08-25T12:21:11.637Z,50304
2017-08-25T12:22:12.384Z,59168
2017-08-25T12:23:13.132Z,60224
2017-08-25T12:24:13.877Z,62816
2017-08-25T12:25:14.643Z,63008
2017-08-25T12:26:15.395Z,66528
2017-08-25T12:27:16.144Z,62816
2017-08-25T12:28:16.893Z,68640
2017-08-25T12:29:17.639Z,66016
2017-08-25T12:30:18.387Z,67616
2017-08-25T12:31:19.139Z,65536
2017-08-25T12:32:19.878Z,62592
2017-08-25T12:33:20.625Z,62144
2017-08-25T12:34:21.376Z,63168
2017-08-25T12:35:22.144Z,59264
2017-08-25T12:36:22.892Z,51616
2017-08-25T12:37:23.636Z,48672
2017-08-25T12:38:24.387Z,48928
2017-08-25T12:39:25.133Z,50656
2017-08-25T12:40:25.900Z,53536
2017-08-25T12:41:26.670Z,54464
2017-08-25T12:42:27.413Z,52896
2017-08-25T12:43:28.190Z,51840
2017-08-25T12:44:28.940Z,50848
2017-08-25T12:45:29.662Z,52032
2017-08-25T12:46:30.404Z,49152
2017-08-25T12:47:31.155Z,51328
2017-08-25T12:48:31.900Z,54272
2017-08-25T12:49:32.645Z,56832
2017-08-25T12:50:33.391Z,56928
2017-08-25T12:51:34.142Z,59136
2017-08-25T12:52:34.893Z,57888
2017-08-25T12:53:35.635Z,52352
2017-08-25T12:54:36.384Z,51584
2017-08-25T12:55:37.129Z,54752
2017-08-25T12:56:37.877Z,54368
2017-08-25T12:57:38.623Z,50368
2017-08-25T12:58:39.376Z,47648
2017-08-25T12:59:40.132Z,48128
2017-08-25T13:00:40.878Z,49536
2017-08-25T13:01:41.623Z,49792
2017-08-25T13:02:42.370Z,49472
2017-08-25T13:03:43.120Z,46592
2017-08-25T13:04:43.881Z,45856
2017-08-25T13:05:44.648Z,47072
2017-08-25T13:06:45.401Z,44864
2017-08-25T13:07:46.155Z,44640
2017-08-25T13:08:46.926Z,43776
2017-08-25T13:09:47.674Z,42720
2017-08-25T13:10:48.417Z,40928
2017-08-25T13:11:49.167Z,41568
2017-08-25T13:12:49.915Z,42560
2017-08-25T13:13:50.685Z,42912
2017-08-25T13:14:51.436Z,40640
2017-08-25T13:15:52.188Z,41888
2017-08-25T13:16:52.938Z,42464
2017-08-25T13:17:53.686Z,41440
2017-08-25T13:18:54.435Z,43360
2017-08-25T13:19:55.180Z,42720
2017-08-25T13:20:55.931Z,43808
2017-08-25T13:21:56.701Z,41312
2017-08-25T13:22:57.453Z,40224
2017-08-25T13:23:58.204Z,36864
2017-08-25T13:24:58.955Z,37824
2017-08-25T13:25:59.705Z,36576
2017-08-25T13:27:00.454Z,40576
2017-08-25T13:28:01.206Z,42016
2017-08-25T13:29:01.953Z,41440
2017-08-25T13:30:02.724Z,41024
2017-08-25T13:31:03.476Z,43776
2017-08-25T13:32:04.251Z,42880
2017-08-25T13:33:05.021Z,44608
2017-08-25T13:34:05.789Z,46720
2017-08-25T13:35:06.540Z,46400
2017-08-25T13:36:07.284Z,44992
2017-08-25T13:37:08.056Z,43552
2017-08-25T13:38:08.815Z,41600
2017-08-25T13:39:09.562Z,38592
2017-08-25T13:40:10.300Z,40864
2017-08-25T13:41:11.050Z,39808
2017-08-25T13:42:11.796Z,38400
2017-08-25T13:43:12.550Z,36160
2017-08-25T13:44:13.297Z,32416
2017-08-25T13:45:14.045Z,30720
2017-08-25T13:46:14.795Z,30656
2017-08-25T13:47:15.569Z,36480
2017-08-25T13:48:16.349Z,36288
2017-08-25T13:49:17.092Z,36416
2017-08-25T13:50:17.843Z,33088
2017-08-25T13:51:18.624Z,29952
2017-08-25T13:52:19.391Z,30304
2017-08-25T13:53:20.141Z,31744
2017-08-25T13:54:20.886Z,30976
2017-08-25T13:55:21.632Z,34560
2017-08-25T13:56:22.383Z,33216
2017-08-25T13:57:23.147Z,26432
2017-08-25T13:58:23.892Z,24448
2017-08-25T13:59:24.638Z,18912
2017-08-25T14:00:25.392Z,16832
2017-08-25T14:01:26.136Z,15712
2017-08-25T14:02:26.886Z,14788
2017-08-25T14:03:27.641Z,16288
2017-08-25T14:04:28.385Z,16320
2017-08-25T14:05:29.144Z,16768
2017-08-25T14:06:29.886Z,21600
2017-08-25T14:07:30.631Z,19680
2017-08-25T14:08:31.380Z,20128
2017-08-25T14:09:32.126Z,23232
2017-08-25T14:10:32.870Z,19200
2017-08-25T14:11:33.613Z,20704
2017-08-25T14:12:34.382Z,25728
2017-08-25T14:13:35.125Z,26400
2017-08-25T14:14:35.866Z,19840
2017-08-25T14:15:36.629Z,21888
2017-08-25T14:16:37.369Z,20128
2017-08-25T14:17:38.114Z,27008
2017-08-25T14:18:38.872Z,29184
2017-08-25T14:19:39.614Z,30656
2017-08-25T14:20:40.358Z,28896
2017-08-25T14:21:41.130Z,29696
2017-08-25T14:22:41.887Z,29120
2017-08-25T14:23:42.626Z,26240
2017-08-25T14:24:43.393Z,25440
2017-08-25T14:25:44.150Z,22304
2017-08-25T14:26:44.889Z,21824
2017-08-25T14:27:45.630Z,20576
2017-08-25T14:28:46.367Z,19968
2017-08-25T14:29:47.105Z,21344
2017-08-25T14:30:47.846Z,22208
2017-08-25T14:31:48.586Z,22976
2017-08-25T14:32:49.323Z,17472
2017-08-25T14:33:50.068Z,17408
2017-08-25T14:34:50.814Z,17440
2017-08-25T14:35:51.551Z,16096
2017-08-25T14:36:52.290Z,16128
2017-08-25T14:37:53.049Z,10616
2017-08-25T14:38:53.789Z,10052
2017-08-25T14:39:54.545Z,9340
2017-08-25T14:40:55.279Z,8976
2017-08-25T14:41:56.016Z,8348
2017-08-25T14:42:56.752Z,7868
2017-08-25T14:43:57.488Z,7416
2017-08-25T14:44:58.226Z,7084
2017-08-25T14:45:58.979Z,6844
2017-08-25T14:46:59.721Z,6680
2017-08-25T14:48:00.458Z,6624
2017-08-25T14:49:01.492Z,6728
2017-08-25T14:50:02.226Z,6836
2017-08-25T14:51:02.994Z,7084
2017-08-25T14:52:03.726Z,7200
2017-08-25T14:53:04.466Z,7908
2017-08-25T14:54:05.217Z,9024
2017-08-25T14:55:05.956Z,13208
2017-08-25T14:56:06.694Z,10188
2017-08-25T14:57:07.449Z,10652
2017-08-25T14:58:08.188Z,10960
2017-08-25T14:59:08.941Z,10768
2017-08-25T15:00:09.697Z,11752
2017-08-25T15:01:10.436Z,10520
2017-08-25T15:02:11.189Z,15392
2017-08-25T15:03:11.954Z,14308
2017-08-25T15:04:12.709Z,11648
2017-08-25T15:05:13.470Z,11020
2017-08-25T15:06:14.228Z,10652
2017-08-25T15:07:14.964Z,10008
2017-08-25T15:08:15.719Z,9516
2017-08-25T15:09:16.476Z,9108
2017-08-25T15:10:17.221Z,8776
2017-08-25T15:11:17.970Z,8576
2017-08-25T15:12:18.769Z,8432
2017-08-25T15:13:19.504Z,8360
2017-08-25T15:14:20.259Z,8288
2017-08-25T15:15:20.995Z,8180
2017-08-25T15:16:21.766Z,8068
2017-08-25T15:17:22.493Z,8208
2017-08-25T15:18:23.229Z,8384
2017-08-25T15:19:23.962Z,8688
2017-08-25T15:20:24.696Z,8396
2017-08-25T15:21:25.457Z,8004
2017-08-25T15:22:26.211Z,7336
2017-08-25T15:23:26.948Z,6956
2017-08-25T15:24:27.677Z,6676
2017-08-25T15:25:28.435Z,6568
2017-08-25T15:26:29.187Z,6696
2017-08-25T15:27:29.920Z,6848
2017-08-25T15:28:30.654Z,7060
2017-08-25T15:29:31.386Z,7816
2017-08-25T15:30:32.141Z,7700
2017-08-25T15:31:32.897Z,9032
2017-08-25T15:32:33.636Z,8076
2017-08-25T15:33:34.386Z,9552
2017-08-25T15:34:35.120Z,10440
2017-08-25T15:35:35.877Z,11096
2017-08-25T15:36:36.612Z,10336
2017-08-25T15:37:37.348Z,9972
2017-08-25T15:38:38.082Z,9020
2017-08-25T15:39:38.836Z,10108
2017-08-25T15:40:39.573Z,10924
2017-08-25T15:41:40.304Z,10756
2017-08-25T15:42:41.041Z,10700
2017-08-25T15:43:41.776Z,8616
2017-08-25T15:44:42.510Z,9212
2017-08-25T15:45:43.263Z,10012
2017-08-25T15:46:44.017Z,8904
2017-08-25T15:47:44.754Z,8236
2017-08-25T15:48:45.487Z,7960
2017-08-25T15:49:46.239Z,8248
2017-08-25T15:50:46.971Z,7504
2017-08-25T15:51:47.705Z,7212
2017-08-25T15:52:48.502Z,7040
2017-08-25T15:53:49.250Z,6788
2017-08-25T15:54:49.975Z,6440
2017-08-25T15:55:50.709Z,6264
2017-08-25T15:56:51.445Z,6508
2017-08-25T15:57:52.189Z,6432
2017-08-25T15:58:52.990Z,6252
2017-08-25T15:59:53.764Z,6176
2017-08-25T16:00:54.530Z,6208
2017-08-25T16:01:55.275Z,6316
2017-08-25T16:02:56.022Z,6240
2017-08-25T16:03:56.756Z,6092
2017-08-25T16:04:57.491Z,5948
2017-08-25T16:05:58.279Z,5804
2017-08-25T16:06:59.023Z,5732
2017-08-25T16:07:59.758Z,5536
2017-08-25T16:09:00.491Z,5588
2017-08-25T16:10:01.222Z,5524
2017-08-25T16:11:01.977Z,5576
2017-08-25T16:12:02.712Z,5584
2017-08-25T16:13:03.464Z,5656
2017-08-25T16:14:04.200Z,5752
2017-08-25T16:15:04.955Z,5820
2017-08-25T16:16:05.688Z,5864
2017-08-25T16:17:06.438Z,5968
2017-08-25T16:18:07.177Z,5984
2017-08-25T16:19:07.905Z,5964
2017-08-25T16:20:08.639Z,5856
2017-08-25T16:21:09.368Z,5648
2017-08-25T16:22:10.107Z,5780
2017-08-25T16:23:10.839Z,5756
2017-08-25T16:24:11.587Z,5664
2017-08-25T16:25:12.325Z,5492
2017-08-25T16:26:13.071Z,5292
2017-08-25T16:27:13.800Z,5192
2017-08-25T16:28:14.556Z,4760
2017-08-25T16:29:15.288Z,4420
2017-08-25T16:30:16.030Z,4140
2017-08-25T16:31:16.783Z,3936
2017-08-25T16:32:17.516Z,3812
2017-08-25T16:33:18.252Z,3764
2017-08-25T16:34:18.981Z,3692
2017-08-25T16:35:19.733Z,3560
2017-08-25T16:36:20.482Z,3252
2017-08-25T16:37:21.202Z,3072
2017-08-25T16:38:21.934Z,2960
2017-08-25T16:39:22.664Z,2988
2017-08-25T16:40:23.396Z,3036
2017-08-25T16:41:24.139Z,3008
2017-08-25T16:42:24.860Z,2916
2017-08-25T16:43:25.594Z,2792
2017-08-25T16:44:26.324Z,2676
2017-08-25T16:45:27.056Z,2640
2017-08-25T16:46:27.783Z,2632
2017-08-25T16:47:28.534Z,2756
2017-08-25T16:48:29.282Z,2840
2017-08-25T16:49:30.013Z,2864
2017-08-25T16:50:30.743Z,2848
2017-08-25T16:51:31.471Z,2816
2017-08-25T16:52:32.221Z,2772
2017-08-25T16:53:32.950Z,2704
2017-08-25T16:54:33.682Z,2684
2017-08-25T16:55:34.408Z,2664
2017-08-25T16:56:35.141Z,2764
2017-08-25T16:57:35.897Z,2944
2017-08-25T16:58:36.653Z,3108
2017-08-25T16:59:37.406Z,3292
2017-08-25T17:00:38.139Z,3340
2017-08-25T17:01:38.894Z,3264
2017-08-25T17:02:39.653Z,3348
2017-08-25T17:03:40.399Z,3324
2017-08-25T17:04:41.133Z,3300
2017-08-25T17:05:41.864Z,3236
2017-08-25T17:06:42.593Z,3204
2017-08-25T17:07:43.325Z,3176
2017-08-25T17:08:44.055Z,3128
2017-08-25T17:09:44.784Z,3096
2017-08-25T17:10:45.518Z,3044
2017-08-25T17:11:46.274Z,2960
2017-08-25T17:12:47.007Z,2920
2017-08-25T17:13:47.737Z,2848
2017-08-25T17:14:48.470Z,2772
2017-08-25T17:15:49.221Z,2684
2017-08-25T17:16:49.952Z,2628
2017-08-25T17:17:50.688Z,2560
2017-08-25T17:18:51.416Z,2496
2017-08-25T17:19:52.153Z,2428
2017-08-25T17:20:52.880Z,2344
2017-08-25T17:21:53.611Z,2272
2017-08-25T17:22:54.366Z,2224
2017-08-25T17:23:55.097Z,2168
2017-08-25T17:24:55.829Z,2104
2017-08-25T17:25:56.584Z,2048
2017-08-25T17:26:57.315Z,1976
2017-08-25T17:27:58.075Z,1896
2017-08-25T17:28:58.809Z,1800
2017-08-25T17:29:59.540Z,1700
2017-08-25T17:31:00.294Z,1584
2017-08-25T17:32:01.029Z,1464
2017-08-25T17:33:01.762Z,1360
2017-08-25T17:34:02.505Z,1284